createdAt,value
2023-03-11T00:00:49.695Z,98341.31
2023-03-11T00:03:51.738Z,98340.50
2023-03-11T00:06:54.096Z,98328.66
2023-03-11T00:09:55.874Z,98332.97
2023-03-11T00:12:59.332Z,98336.72
2023-03-11T00:16:01.350Z,98326.28
2023-03-11T00:19:03.290Z,98316.81
2023-03-11T00:22:05.147Z,98311.81
2023-03-11T00:25:07.281Z,98310.00
2023-03-11T00:28:10.591Z,98302.91
2023-03-11T00:31:13.872Z,98294.13
2023-03-11T00:34:15.764Z,98294.94
2023-03-11T00:37:17.597Z,98288.13
2023-03-11T00:40:21.149Z,98279.22
2023-03-11T00:43:22.977Z,98275.19
2023-03-11T00:46:24.973Z,98269.22
2023-03-11T00:49:26.931Z,98260.72
2023-03-11T00:52:29.139Z,98261.81
2023-03-11T00:55:33.587Z,98262.50
2023-03-11T00:58:37.312Z,98260.69
2023-03-11T01:01:39.394Z,98254.56
2023-03-11T01:04:43.776Z,98249.78
2023-03-11T01:07:46.092Z,98248.13
2023-03-11T01:10:47.964Z,98242.28
2023-03-11T01:13:52.878Z,98236.47
2023-03-11T01:16:57.319Z,98221.84
2023-03-11T01:19:59.174Z,98215.88
2023-03-11T01:23:01.167Z,98225.78
2023-03-11T01:26:03.494Z,98224.78
2023-03-11T01:29:05.519Z,98225.47
2023-03-11T01:32:07.857Z,98219.50
2023-03-11T01:35:17.664Z,98220.34
2023-03-11T01:38:19.474Z,98217.53
2023-03-11T01:41:24.858Z,98227.59
2023-03-11T01:44:27.070Z,98221.31
2023-03-11T01:47:36.534Z,98220.22
2023-03-11T01:50:45.074Z,98212.00
2023-03-11T01:53:47.350Z,98218.72
2023-03-11T01:56:51.630Z,98208.41
2023-03-11T01:59:58.662Z,98211.22
2023-03-11T02:03:06.457Z,98204.25
2023-03-11T02:06:22.000Z,98203.28
2023-03-11T02:09:27.118Z,98204.41
2023-03-11T02:12:31.341Z,98198.81
2023-03-11T02:15:33.681Z,98201.44
2023-03-11T02:18:36.680Z,98203.94
2023-03-11T02:21:39.899Z,98193.22
2023-03-11T02:24:57.954Z,98190.88
2023-03-11T02:28:03.126Z,98184.34
2023-03-11T02:31:05.206Z,98178.81
2023-03-11T02:34:15.966Z,98172.88
2023-03-11T02:37:18.599Z,98166.88
2023-03-11T02:41:02.051Z,98171.38
2023-03-11T02:44:08.381Z,98178.19
2023-03-11T02:47:10.907Z,98171.81
2023-03-11T02:50:18.809Z,98164.47
2023-03-11T02:53:21.046Z,98156.53
2023-03-11T02:56:23.182Z,98154.44
2023-03-11T02:59:25.099Z,98154.97
2023-03-11T03:02:28.772Z,98154.00
2023-03-11T03:05:33.521Z,98143.97
2023-03-11T03:08:36.932Z,98143.13
2023-03-11T03:11:39.050Z,98138.13
2023-03-11T03:14:41.009Z,98124.22
2023-03-11T03:17:43.234Z,98120.06
2023-03-11T03:20:45.301Z,98117.25
2023-03-11T03:23:48.141Z,98119.75
2023-03-11T03:26:52.113Z,98117.13
2023-03-11T03:29:54.274Z,98113.78
2023-03-11T03:32:56.862Z,98107.50
2023-03-11T03:35:58.972Z,98115.44
2023-03-11T03:39:05.654Z,98107.06
2023-03-11T03:42:14.148Z,98099.53
2023-03-11T03:45:16.887Z,98104.97
2023-03-11T03:48:21.333Z,98102.31
2023-03-11T03:51:23.425Z,98106.63
2023-03-11T03:54:38.317Z,98103.84
2023-03-11T03:57:42.978Z,98109.69
2023-03-11T04:00:47.994Z,98103.56
2023-03-11T04:03:50.301Z,98103.94
2023-03-11T04:06:52.240Z,98096.84
2023-03-11T04:09:54.588Z,98079.16
2023-03-11T04:12:57.186Z,98072.50
2023-03-11T04:15:59.577Z,98078.47
2023-03-11T04:19:01.792Z,98070.41
2023-03-11T04:22:04.163Z,98069.25
2023-03-11T04:25:09.279Z,98066.78
2023-03-11T04:28:12.176Z,98065.50
2023-03-11T04:31:14.168Z,98073.88
2023-03-11T04:34:16.439Z,98070.78
2023-03-11T04:37:18.654Z,98065.78
2023-03-11T04:40:20.717Z,98069.94
2023-03-11T04:43:22.857Z,98076.91
2023-03-11T04:46:24.898Z,98067.53
2023-03-11T04:49:27.036Z,98064.22
2023-03-11T04:52:29.342Z,98058.09
2023-03-11T04:55:31.559Z,98059.47
2023-03-11T04:58:33.895Z,98057.50
2023-03-11T05:01:36.062Z,98055.38
2023-03-11T05:04:40.654Z,98047.59
2023-03-11T05:07:42.960Z,98039.13
2023-03-11T05:10:48.086Z,98046.63
2023-03-11T05:13:50.545Z,98049.25
2023-03-11T05:16:53.278Z,98055.63
2023-03-11T05:19:55.253Z,98053.50
2023-03-11T05:23:06.064Z,98045.13
2023-03-11T05:26:10.386Z,98044.97
2023-03-11T05:29:13.805Z,98039.81
2023-03-11T05:32:15.996Z,98040.34
2023-03-11T05:35:20.848Z,98049.44
2023-03-11T05:38:25.450Z,98045.19
2023-03-11T05:41:29.692Z,98044.44
2023-03-11T05:44:36.075Z,98039.44
2023-03-11T05:47:38.639Z,98040.59
2023-03-11T05:50:41.308Z,98044.22
2023-03-11T05:53:51.147Z,98041.63
2023-03-11T05:57:01.377Z,98043.53
2023-03-11T06:00:10.523Z,98048.06
2023-03-11T06:03:15.186Z,98041.25
2023-03-11T06:06:17.883Z,98043.44
2023-03-11T06:09:21.116Z,98039.13
2023-03-11T06:12:22.987Z,98021.66
2023-03-11T06:15:36.086Z,98014.47
2023-03-11T06:18:38.725Z,98007.06
2023-03-11T06:21:41.316Z,98009.38
2023-03-11T06:24:43.818Z,98011.41
2023-03-11T06:27:51.665Z,98009.97
2023-03-11T06:30:56.887Z,98004.06
2023-03-11T06:33:59.576Z,98006.19
2023-03-11T06:37:02.685Z,98006.19
2023-03-11T06:40:07.587Z,98006.19
2023-03-11T06:43:10.028Z,97989.97
2023-03-11T06:46:25.128Z,97984.72
2023-03-11T06:49:28.622Z,97991.22
2023-03-11T06:52:31.904Z,97993.94
2023-03-11T06:55:35.486Z,97983.31
2023-03-11T06:58:40.469Z,97980.53
2023-03-11T07:01:46.564Z,97976.25
2023-03-11T07:04:50.283Z,97972.66
2023-03-11T07:07:55.747Z,97963.84
2023-03-11T07:11:09.438Z,97958.06
2023-03-11T07:14:11.493Z,97961.56
2023-03-11T07:17:17.768Z,97960.00
2023-03-11T07:20:23.953Z,97961.06
2023-03-11T07:23:25.840Z,97965.25
2023-03-11T07:26:29.277Z,97970.41
2023-03-11T07:29:33.438Z,97967.94
2023-03-11T07:32:35.369Z,97965.63
2023-03-11T07:35:37.301Z,97968.78
2023-03-11T07:38:40.983Z,97971.44
2023-03-11T07:41:44.354Z,97961.66
2023-03-11T07:44:51.870Z,97954.53
2023-03-11T07:47:53.756Z,97944.91
2023-03-11T07:51:11.761Z,97956.53
2023-03-11T07:54:13.967Z,97946.25
2023-03-11T07:57:17.296Z,97946.56
2023-03-11T08:00:21.648Z,97930.63
2023-03-11T08:03:24.866Z,97924.94
2023-03-11T08:06:31.234Z,97918.94
2023-03-11T08:09:35.159Z,97915.28
2023-03-11T08:12:37.057Z,97899.81
2023-03-11T08:15:41.149Z,97901.28
2023-03-11T08:18:47.357Z,97905.44
2023-03-11T08:21:49.231Z,97901.94
2023-03-11T08:24:52.973Z,97893.09
2023-03-11T08:27:57.598Z,97882.13
2023-03-11T08:31:00.299Z,97870.44
2023-03-11T08:34:09.089Z,97863.94
2023-03-11T08:37:11.255Z,97868.03
2023-03-11T08:40:13.407Z,97865.47
2023-03-11T08:43:15.811Z,97852.59
2023-03-11T08:46:27.193Z,97851.88
2023-03-11T08:49:29.292Z,97851.16
2023-03-11T08:52:33.600Z,97855.44
2023-03-11T08:55:35.562Z,97859.38
2023-03-11T08:58:37.757Z,97858.03
2023-03-11T09:01:42.067Z,97861.81
2023-03-11T09:04:43.994Z,97861.75
2023-03-11T09:07:46.135Z,97863.50
2023-03-11T09:10:48.015Z,97857.75
2023-03-11T09:13:50.795Z,97851.97
2023-03-11T09:16:55.146Z,97846.94
2023-03-11T09:19:57.294Z,97849.34
2023-03-11T09:22:59.175Z,97845.50
2023-03-11T09:26:01.017Z,97857.53
2023-03-11T09:29:02.870Z,97853.66
2023-03-11T09:32:05.274Z,97853.31
2023-03-11T09:35:07.278Z,97849.06
2023-03-11T09:38:09.207Z,97844.34
2023-03-11T09:41:16.990Z,97842.59
2023-03-11T09:44:37.328Z,97836.69
2023-03-11T09:48:17.790Z,97831.25
2023-03-11T09:51:31.132Z,97824.97
2023-03-11T09:54:41.832Z,97819.63
2023-03-11T09:57:44.491Z,97817.59
2023-03-11T10:00:48.668Z,97812.25
2023-03-11T10:03:55.133Z,97810.41
2023-03-11T10:07:00.114Z,97809.97
2023-03-11T10:10:02.207Z,97806.53
2023-03-11T10:13:25.826Z,97790.06
2023-03-11T10:16:48.429Z,97783.00
2023-03-11T10:19:56.492Z,97790.81
2023-03-11T10:23:18.779Z,97775.44
2023-03-11T10:26:23.617Z,97771.19
2023-03-11T10:29:34.713Z,97761.59
2023-03-11T10:32:46.697Z,97760.00
2023-03-11T10:35:55.245Z,97768.00
2023-03-11T10:38:57.551Z,97765.53
2023-03-11T10:42:05.137Z,97765.91
2023-03-11T10:45:13.973Z,97749.31
2023-03-11T10:48:17.758Z,97753.84
2023-03-11T10:51:26.786Z,97740.69
2023-03-11T10:54:46.221Z,97727.34
2023-03-11T10:57:50.268Z,97719.53
2023-03-11T11:01:31.950Z,97695.69
2023-03-11T11:04:41.220Z,97688.88
2023-03-11T11:07:46.561Z,97678.41
2023-03-11T11:11:03.001Z,97671.03
2023-03-11T11:14:05.486Z,97669.97
2023-03-11T11:17:28.980Z,97654.56
2023-03-11T11:20:32.980Z,97650.88
2023-03-11T11:23:46.831Z,97638.25
2023-03-11T11:27:05.344Z,97643.22
2023-03-11T11:30:11.318Z,97643.22
2023-03-11T11:33:30.057Z,97641.31
2023-03-11T11:36:36.946Z,97642.19
2023-03-11T11:39:52.176Z,97645.69
2023-03-11T11:43:18.405Z,97649.19
2023-03-11T11:46:31.409Z,97645.88
2023-03-11T11:49:34.704Z,97639.63
2023-03-11T11:52:45.223Z,97636.63
2023-03-11T11:55:53.981Z,97622.84
2023-03-11T11:58:55.912Z,97629.38
2023-03-11T12:02:32.921Z,97612.53
2023-03-11T12:05:45.631Z,97598.56
2023-03-11T12:09:06.069Z,97598.75
2023-03-11T12:12:40.296Z,97578.28
2023-03-11T12:15:46.695Z,97566.59
2023-03-11T12:19:13.129Z,97565.44
2023-03-11T12:22:36.777Z,97561.78
2023-03-11T12:25:53.421Z,97563.88
2023-03-11T12:29:01.313Z,97554.44
2023-03-11T12:32:04.073Z,97547.72
2023-03-11T12:35:30.291Z,97543.25
2023-03-11T12:38:35.757Z,97544.31
2023-03-11T12:41:42.206Z,97542.47
2023-03-11T12:44:45.703Z,97532.81
2023-03-11T12:48:26.287Z,97528.53
2023-03-11T12:51:34.338Z,97511.50
2023-03-11T12:54:37.414Z,97512.97
2023-03-11T12:57:48.318Z,97516.66
2023-03-11T13:01:18.769Z,97508.66
2023-03-11T13:04:42.659Z,97497.97
2023-03-11T13:07:54.143Z,97490.38
2023-03-11T13:10:56.719Z,97492.25
2023-03-11T13:14:18.013Z,97487.34
2023-03-11T13:17:33.534Z,97470.69
2023-03-11T13:20:44.514Z,97465.34
2023-03-11T13:23:46.424Z,97465.34
2023-03-11T13:27:03.374Z,97463.09
2023-03-11T13:30:23.740Z,97455.31
2023-03-11T13:33:43.569Z,97452.22
2023-03-11T13:37:09.651Z,97445.03
2023-03-11T13:40:36.599Z,97430.41
2023-03-11T13:43:44.995Z,97431.44
2023-03-11T13:46:55.437Z,97419.72
2023-03-11T13:50:02.780Z,97424.88
2023-03-11T13:53:17.627Z,97410.69
2023-03-11T13:56:28.501Z,97411.09
2023-03-11T13:59:33.783Z,97419.31
2023-03-11T14:02:36.028Z,97406.56
2023-03-11T14:05:46.431Z,97409.66
2023-03-11T14:08:56.419Z,97404.94
2023-03-11T14:12:05.394Z,97404.72
2023-03-11T14:15:21.764Z,97412.53
2023-03-11T14:18:34.238Z,97400.81
2023-03-11T14:21:36.104Z,97398.56
2023-03-11T14:24:39.698Z,97400.63
2023-03-11T14:27:50.391Z,97392.38
2023-03-11T14:30:57.731Z,97397.31
2023-03-11T14:34:07.228Z,97392.78
2023-03-11T14:37:34.652Z,97393.81
2023-03-11T14:40:42.173Z,97397.94
2023-03-11T14:43:49.736Z,97392.38
2023-03-11T14:46:53.354Z,97390.31
2023-03-11T14:49:57.278Z,97394.63
2023-03-11T14:53:17.778Z,97392.38
2023-03-11T14:56:23.815Z,97390.50
2023-03-11T14:59:32.410Z,97382.91
2023-03-11T15:02:40.346Z,97381.25
2023-03-11T15:05:55.850Z,97390.09
2023-03-11T15:09:03.794Z,97399.34
2023-03-11T15:12:06.093Z,97393.59
2023-03-11T15:15:23.931Z,97385.34
2023-03-11T15:18:32.099Z,97389.88
2023-03-11T15:21:34.603Z,97387.41
2023-03-11T15:24:37.747Z,97382.47
2023-03-11T15:27:40.152Z,97398.53
2023-03-11T15:30:45.923Z,97379.19
2023-03-11T15:33:49.263Z,97381.25
2023-03-11T15:36:55.473Z,97388.44
2023-03-11T15:40:11.667Z,97374.25
2023-03-11T15:43:23.976Z,97397.28
2023-03-11T15:46:26.231Z,97399.34
2023-03-11T15:49:30.164Z,97384.13
2023-03-11T15:52:32.001Z,97388.25
2023-03-11T15:55:33.981Z,97381.88
2023-03-11T15:58:37.992Z,97387.44
2023-03-11T16:01:39.922Z,97375.28
2023-03-11T16:04:43.068Z,97386.59
2023-03-11T16:07:46.764Z,97383.31
2023-03-11T16:10:48.642Z,97384.31
2023-03-11T16:13:50.509Z,97380.19
2023-03-11T16:16:52.359Z,97375.47
2023-03-11T16:19:54.242Z,97367.66
2023-03-11T16:23:02.504Z,97376.72
2023-03-11T16:26:05.640Z,97373.00
2023-03-11T16:29:18.654Z,97367.47
2023-03-11T16:32:22.853Z,97374.03
2023-03-11T16:35:25.467Z,97380.03
2023-03-11T16:38:27.678Z,97375.50
2023-03-11T16:41:29.540Z,97363.56
2023-03-11T16:44:31.655Z,97370.34
2023-03-11T16:47:33.535Z,97369.09
2023-03-11T16:50:37.873Z,97341.72
2023-03-11T16:53:39.835Z,97331.41
2023-03-11T16:56:41.964Z,97329.56
2023-03-11T16:59:45.658Z,97332.44
2023-03-11T17:02:47.532Z,97318.88
2023-03-11T17:05:49.944Z,97318.88
2023-03-11T17:08:51.976Z,97313.75
2023-03-11T17:11:53.844Z,97319.91
2023-03-11T17:14:56.215Z,97317.06
2023-03-11T17:17:58.747Z,97305.94
2023-03-11T17:21:02.276Z,97297.72
2023-03-11T17:24:04.269Z,97299.16
2023-03-11T17:27:06.616Z,97300.81
2023-03-11T17:30:09.464Z,97291.34
2023-03-11T17:33:11.308Z,97285.00
2023-03-11T17:36:16.351Z,97281.28
2023-03-11T17:39:18.185Z,97277.56
2023-03-11T17:42:20.248Z,97268.72
2023-03-11T17:45:22.114Z,97262.31
2023-03-11T17:48:23.961Z,97266.44
2023-03-11T17:51:26.440Z,97252.00
2023-03-11T17:54:28.291Z,97249.56
2023-03-11T17:57:33.597Z,97245.03
2023-03-11T18:00:39.329Z,97237.59
2023-03-11T18:03:41.655Z,97237.38
2023-03-11T18:06:43.543Z,97221.75
2023-03-11T18:09:51.638Z,97219.47
2023-03-11T18:12:53.593Z,97225.41
2023-03-11T18:16:05.607Z,97222.75
2023-03-11T18:19:07.540Z,97219.84
2023-03-11T18:22:09.468Z,97226.41
2023-03-11T18:25:11.474Z,97215.53
2023-03-11T18:28:13.305Z,97223.94
2023-03-11T18:31:18.227Z,97216.13
2023-03-11T18:34:23.004Z,97217.56
2023-03-11T18:37:25.225Z,97227.22
2023-03-11T18:40:28.054Z,97210.78
2023-03-11T18:43:29.783Z,97213.72
2023-03-11T18:46:41.547Z,97221.31
2023-03-11T18:49:43.629Z,97216.16
2023-03-11T18:52:47.807Z,97218.03
2023-03-11T18:55:50.740Z,97210.00
2023-03-11T18:58:52.762Z,97221.53
2023-03-11T19:01:56.930Z,97215.34
2023-03-11T19:04:59.036Z,97200.97
2023-03-11T19:08:00.903Z,97200.75
2023-03-11T19:11:10.734Z,97199.50
2023-03-11T19:14:13.072Z,97200.38
2023-03-11T19:17:16.541Z,97185.13
2023-03-11T19:20:19.222Z,97188.63
2023-03-11T19:23:21.184Z,97193.34
2023-03-11T19:26:41.393Z,97184.72
2023-03-11T19:29:45.353Z,97175.47
2023-03-11T19:32:54.880Z,97178.38
2023-03-11T19:36:04.722Z,97170.13
2023-03-11T19:39:07.521Z,97170.53
2023-03-11T19:42:09.411Z,97178.16
2023-03-11T19:45:17.059Z,97162.31
2023-03-11T19:48:20.189Z,97171.16
2023-03-11T19:51:22.074Z,97161.06
2023-03-11T19:54:24.011Z,97174.22
2023-03-11T19:57:29.450Z,97146.88
2023-03-11T20:00:31.501Z,97156.53
2023-03-11T20:03:33.370Z,97146.06
2023-03-11T20:06:35.264Z,97139.25
2023-03-11T20:09:37.090Z,97136.34
2023-03-11T20:12:41.375Z,97118.28
2023-03-11T20:15:47.373Z,97125.03
2023-03-11T20:18:50.523Z,97110.47
2023-03-11T20:21:52.476Z,97107.56
2023-03-11T20:24:54.366Z,97102.22
2023-03-11T20:27:59.737Z,97109.22
2023-03-11T20:31:07.434Z,97105.28
2023-03-11T20:34:09.598Z,97107.97
2023-03-11T20:37:11.990Z,97084.16
2023-03-11T20:40:15.967Z,97089.22
2023-03-11T20:43:17.853Z,97080.19
2023-03-11T20:46:19.815Z,97081.59
2023-03-11T20:49:22.071Z,97083.66
2023-03-11T20:52:24.320Z,97075.44
2023-03-11T20:55:26.203Z,97074.59
2023-03-11T20:58:28.053Z,97066.75
2023-03-11T21:01:31.903Z,97068.81
2023-03-11T21:04:35.570Z,97072.97
2023-03-11T21:07:37.977Z,97056.91
2023-03-11T21:10:40.065Z,97058.13
2023-03-11T21:13:44.637Z,97062.66
2023-03-11T21:16:46.737Z,97058.34
2023-03-11T21:19:48.756Z,97058.72
2023-03-11T21:22:50.843Z,97052.72
2023-03-11T21:26:03.928Z,97053.09
2023-03-11T21:29:05.772Z,97045.28
2023-03-11T21:32:07.699Z,97047.81
2023-03-11T21:35:09.739Z,97057.03
2023-03-11T21:38:21.239Z,97062.00
2023-03-11T21:41:26.241Z,97064.25
2023-03-11T21:44:28.463Z,97057.91
2023-03-11T21:47:31.509Z,97059.72
2023-03-11T21:50:33.624Z,97062.38
2023-03-11T21:53:35.627Z,97061.56
2023-03-11T21:56:37.503Z,97056.44
2023-03-11T21:59:41.813Z,97053.53
2023-03-11T22:02:43.703Z,97042.44
2023-03-11T22:05:45.979Z,97055.19
2023-03-11T22:08:48.565Z,97051.19
2023-03-11T22:11:50.656Z,97045.69
2023-03-11T22:14:52.634Z,97045.25
2023-03-11T22:17:56.025Z,97048.34
2023-03-11T22:20:59.779Z,97053.88
2023-03-11T22:24:03.844Z,97041.31
2023-03-11T22:27:05.759Z,97043.59
2023-03-11T22:30:08.744Z,97040.22
2023-03-11T22:33:15.912Z,97047.03
2023-03-11T22:36:17.913Z,97045.94
2023-03-11T22:39:19.811Z,97045.34
2023-03-11T22:42:21.812Z,97028.47
2023-03-11T22:45:23.794Z,97029.66
2023-03-11T22:48:25.707Z,97028.03
2023-03-11T22:51:27.635Z,97023.94
2023-03-11T22:54:29.661Z,97030.25
2023-03-11T22:57:38.707Z,97028.63
2023-03-11T23:00:44.214Z,97026.78
2023-03-11T23:03:46.202Z,97028.19
2023-03-11T23:06:49.244Z,97028.84
2023-03-11T23:09:51.162Z,97021.03
2023-03-11T23:12:53.058Z,97034.19
2023-03-11T23:15:57.322Z,97029.06
2023-03-11T23:19:01.676Z,97033.81
2023-03-11T23:22:04.096Z,97041.03
2023-03-11T23:25:08.325Z,97030.81
2023-03-11T23:28:10.206Z,97029.94
2023-03-11T23:31:14.485Z,97024.59
2023-03-11T23:34:16.391Z,97008.53
2023-03-11T23:37:23.799Z,97016.13
2023-03-11T23:40:26.289Z,96989.19
2023-03-11T23:43:28.084Z,96997.00
2023-03-11T23:46:30.129Z,96988.38
2023-03-11T23:49:32.046Z,96986.16
2023-03-11T23:52:34.768Z,96978.50
2023-03-11T23:55:38.166Z,96979.16
2023-03-11T23:58:43.664Z,96976.50
